Latest Coastal Weather Observations for Yanakie

IDV60701

Issued at 4:21 am EST Wednesday 23 August 2017 (issued every 10 minutes, with the page automatically refreshed every 10 minutes)

About coastal observations | Map of coastal stations | Coastal observations for VIC | Marine services | Other Formats
Station Details ID: 085301 Name: YANAKIE Lat: -38.81 Lon: 146.19 Height: 13.3 m
Data from the previous 72 hours. | See also: Recent months at Yanakie
Date/Time
EST
Temp
°C
Wind Pressure Rain since
9am
mm
Weather Cloud Vis
km
Sea
Height
m
Swell
Dir  Spd
kts
Gust
kts
hPa Trend Height
m
Period
s
Dir
23/04:00am 10.1 NNW 6 13 1017.0 - 0.0 - - - - - - -
23/03:30am 9.6 NNW 6 9 1017.2 - 0.0 - - - - - - -
23/03:00am 9.4 NW 6 9 1017.5 - 0.0 - - - - - - -
23/02:30am 8.7 NW 5 7 1017.7 - 0.0 - - - - - - -
23/02:00am 8.3 NW 4 5 1017.8 - 0.0 - - - - - - -
23/01:30am 9.4 NW 5 7 1017.7 - 0.0 - - - - - - -
23/01:00am 10.1 NW 7 10 1017.6 - 0.0 - - - - - - -
23/12:30am 9.7 NW 6 8 1017.7 - 0.0 - - - - - - -
23/12:00am 9.2 NW 6 8 1017.8 - 0.0 - - - - - - -
 
Date/Time
EST
Temp
°C
Wind Pressure Rain since
9am
mm
Weather Cloud Vis
km
Sea
Height
m
Swell
Dir  Spd
kts
Gust
kts
hPa Trend Height
m
Period
s
Dir
22/11:30pm 9.2 NNW 6 8 1018.0 - 0.0 - - - - - - -
22/11:00pm 9.1 NNW 6 7 1018.2 - 0.0 - - - - - - -
22/10:30pm 8.9 NW 6 7 1018.4 - 0.0 - - - - - - -
22/10:00pm 9.5 NW 6 7 1018.5 - 0.0 - - - - - - -
22/09:30pm 10.2 NNW 5 7 1018.5 - 0.0 - - - - - - -
22/09:00pm 10.7 NNW 6 7 1018.4 - 0.0 - - - - - - -
22/08:30pm 11.0 NNW 5 7 1018.4 - 0.0 - - - - - - -
22/08:00pm 10.8 NNW 5 7 1018.4 - 0.0 - - - - - - -
22/07:30pm 10.4 NNW 3 4 1018.4 - 0.0 - - - - - - -
22/07:00pm 10.3 NW 3 4 1018.2 - 0.0 - - - - - - -
22/06:30pm 9.5 W 3 4 1018.2 - 0.0 - - - - - - -
22/06:00pm 9.7 W 4 5 1018.0 - 0.0 - - - - - - -
22/05:30pm 10.7 WNW 4 5 1017.8 - 0.0 - - - - - - -
22/05:00pm 12.2 WNW 7 9 1017.5 - 0.0 - - - - - - -
22/04:30pm 13.1 W 9 11 1017.4 - 0.0 - - - - - - -
22/04:00pm 14.2 WNW 12 16 1017.2 - 0.0 - - - - - - -
22/03:30pm 14.5 WNW 13 17 1017.1 - 0.0 - - - - - - -
22/03:00pm 14.9 WNW 13 18 1016.9 - 0.0 - - - - - - -
22/02:30pm 14.7 WNW 14 19 1016.9 - 0.0 - - - - - - -
22/02:00pm 14.7 WNW 14 18 1016.9 - 0.0 - - - - - - -
22/01:30pm 14.6 NW 13 17 1017.0 - 0.0 - - - - - - -
22/01:00pm 14.3 WNW 13 18 1017.4 - 0.0 - - - - - - -
22/12:30pm 14.0 WNW 14 18 1017.7 - 0.0 - - - - - - -
22/12:00pm 13.4 WNW 15 20 1018.0 - 0.0 - - - - - - -
22/11:30am 13.8 WNW 14 18 1018.3 - 0.0 - - - - - - -
22/11:00am 13.5 WNW 12 16 1018.4 - 0.0 - - - - - - -
22/10:30am 12.6 NW 13 17 1018.3 - 0.0 - - - - - - -
22/10:00am 11.7 NW 12 16 1018.1 - 0.0 - - - - - - -
22/09:30am 11.1 NW 11 16 1018.1 - 0.0 - - - - - - -
22/09:00am 10.6 NW 11 15 1017.9 - 0.2 - - - - - - -
22/08:30am 9.7 NW 10 15 1017.8 - 0.2 - - - - - - -
22/08:00am 8.5 NW 8 12 1017.6 - 0.2 - - - - - - -
22/07:30am 7.0 NNW 8 10 1017.4 - 0.2 - - - - - - -
22/07:00am 5.7 NNW 7 11 1017.3 - 0.2 - - - - - - -
22/06:30am 4.8 N 2 4 1017.2 - 0.2 - - - - - - -
22/06:00am 4.5 N 2 3 1017.1 - 0.2 - - - - - - -
22/05:30am 3.7 N 1 2 1017.0 - 0.2 - - - - - - -
22/05:00am 3.0 NNE 1 3 1016.8 - 0.2 - - - - - - -
22/04:30am 4.9 NE 3 4 1016.5 - 0.2 - - - - - - -
22/04:00am 2.6 NE 1 3 1016.2 - 0.2 - - - - - - -
22/03:30am 4.0 NE 3 4 1016.1 - 0.2 - - - - - - -
22/03:00am 3.7 CALM 0 3 1016.3 - 0.2 - - - - - - -
22/02:30am 3.6 CALM 0 0 1016.4 - 0.2 - - - - - - -
22/02:00am 3.2 CALM 0 0 1016.5 - 0.2 - - - - - - -
22/01:30am 4.1 CALM 0 0 1016.7 - 0.2 - - - - - - -
22/01:00am 3.0 CALM 0 0 1016.8 - 0.2 - - - - - - -
22/12:30am 3.2 CALM 0 0 1016.7 - 0.2 - - - - - - -
22/12:00am 3.4 NNE 2 3 1016.7 - 0.2 - - - - - - -
 
Date/Time
EST
Temp
°C
Wind Pressure Rain since
9am
mm
Weather Cloud Vis
km
Sea
Height
m
Swell
Dir  Spd
kts
Gust
kts
hPa Trend Height
m
Period
s
Dir
21/11:30pm 4.1 NNE 1 3 1016.8 - 0.2 - - - - - - -
21/11:00pm 2.8 NE 1 2 1016.9 - 0.2 - - - - - - -
21/10:30pm 3.2 CALM 0 2 1016.9 - 0.2 - - - - - - -
21/10:00pm 3.7 NE 1 2 1016.8 - 0.2 - - - - - - -
21/09:30pm 5.2 NE 1 3 1016.7 - 0.2 - - - - - - -
21/09:00pm 4.8 CALM 0 0 1016.8 - 0.2 - - - - - - -
21/08:30pm 4.7 CALM 0 0 1016.8 - 0.2 - - - - - - -
21/08:00pm 5.4 NE 1 2 1016.7 - 0.2 - - - - - - -
21/07:30pm 7.0 ENE 2 3 1016.3 - 0.2 - - - - - - -
21/07:00pm 7.9 CALM 0 0 1016.0 - 0.2 - - - - - - -
21/06:30pm 8.2 CALM 0 0 1015.6 - 0.2 - - - - - - -
21/06:00pm 8.8 CALM 0 0 1015.3 - 0.2 - - - - - - -
21/05:30pm 9.3 CALM 0 0 1015.1 - 0.2 - - - - - - -
21/05:00pm 9.4 CALM 0 0 1015.1 - 0.2 - - - - - - -
21/04:30pm 9.5 NW 2 3 1014.8 - 0.2 - - - - - - -
21/04:00pm 9.4 NW 4 7 1014.8 - 0.2 - - - - - - -
21/03:30pm 9.9 NW 6 8 1014.9 - 0.2 - - - - - - -
21/03:00pm 9.6 NW 4 6 1014.9 - 0.2 Recent precip. - - - - - -
21/02:30pm 9.1 N 2 6 1015.0 - 0.2 - - - - - - -
21/02:00pm 8.9 N 5 9 1015.5 - 0.0 - - - - - - -
21/01:30pm 8.7 N 5 8 1015.9 - 0.0 - - - - - - -
21/01:00pm 9.0 N 6 10 1016.1 - 0.0 - - - - - - -
21/12:30pm 9.4 N 7 12 1016.3 - 0.0 - - - - - - -
21/12:00pm 10.3 NW 4 6 1016.5 - 0.0 - - - - - - -
21/11:30am 10.5 NNW 4 7 1016.7 - 0.0 - - - - - - -
21/11:00am 9.9 NNE 1 3 1016.7 - 0.0 - - - - - - -
21/10:30am 9.2 NE 2 3 1016.9 - 0.0 - - - - - - -
21/10:00am 8.4 NNE 2 3 1017.0 - 0.0 - - - - - - -
21/09:30am 8.0 NNE 1 3 1017.2 - 0.0 - - - - - - -
21/09:00am 7.0 N 2 3 1016.9 - 0.0 - - - - - - -
21/08:30am 6.8 N 1 3 1017.0 - 0.0 - - - - - - -
21/08:00am 6.7 E 1 3 1017.0 - 0.0 - - - - - - -
21/07:30am 6.1 CALM 0 2 1016.8 - 0.0 - - - - - - -
21/07:00am 6.1 N 1 2 1016.8 - 0.0 - - - - - - -
21/06:30am 5.9 N 2 3 1016.6 - 0.0 - - - - - - -
21/06:00am 5.7 N 2 3 1016.4 - 0.0 - - - - - - -
21/05:30am 5.8 N 2 3 1016.5 - 0.0 - - - - - - -
21/05:00am 5.1 N 3 4 1016.5 - 0.0 - - - - - - -
21/04:30am 4.9 N 2 3 1016.6 - 0.0 - - - - - - -
21/04:00am 4.2 CALM 0 2 1016.8 - 0.0 - - - - - - -
21/03:30am 4.5 NE 2 3 1017.2 - 0.0 - - - - - - -
21/03:00am 4.8 NE 2 3 1017.4 - 0.0 - - - - - - -
21/02:30am 4.1 CALM 0 0 1017.7 - 0.0 - - - - - - -
21/02:00am 4.1 ENE 2 3 1017.9 - 0.0 - - - - - - -
21/01:30am 3.6 CALM 0 0 1018.4 - 0.0 - - - - - - -
21/01:00am 4.5 NE 2 2 1018.6 - 0.0 - - - - - - -
21/12:30am 4.1 NE 1 2 1018.8 - 0.0 - - - - - - -
21/12:00am 4.3 NE 2 3 1018.9 - 0.0 - - - - - - -
 
Date/Time
EST
Temp
°C
Wind Pressure Rain since
9am
mm
Weather Cloud Vis
km
Sea
Height
m
Swell
Dir  Spd
kts
Gust
kts
hPa Trend Height
m
Period
s
Dir
20/11:30pm 4.3 NNE 2 3 1019.1 - 0.0 - - - - - - -
20/11:00pm 4.3 NNE 2 3 1019.5 - 0.0 - - - - - - -
20/10:30pm 4.3 NNE 2 3 1019.8 - 0.0 - - - - - - -
20/10:00pm 4.2 NNE 3 4 1019.9 - 0.0 - - - - - - -
20/09:30pm 4.7 N 2 3 1020.0 - 0.0 - - - - - - -
20/09:00pm 5.2 NNE 3 3 1020.3 - 0.0 - - - - - - -
20/08:30pm 4.9 N 4 5 1020.3 - 0.0 - - - - - - -
20/08:00pm 4.5 CALM 0 0 1020.4 - 0.0 - - - - - - -
20/07:30pm 5.1 CALM 0 0 1020.5 - 0.0 - - - - - - -
20/07:00pm 4.9 CALM 0 0 1020.7 - 0.0 - - - - - - -
20/06:30pm 5.7 SSW 2 2 1020.4 - 0.0 - - - - - - -
20/06:00pm 7.1 S 2 3 1020.3 - 0.0 - - - - - - -
20/05:30pm 9.0 S 2 2 1020.2 - 0.0 - - - - - - -
20/05:00pm 10.4 S 3 4 1020.5 - 0.0 - - - - - - -
20/04:30pm 10.6 SSW 3 5 1020.6 - 0.0 - - - - - - -
20/04:00pm 9.9 SW 4 5 1021.0 - 0.0 - - - - - - -
20/03:30pm 11.0 SW 5 7 1021.4 - 0.0 - - - - - - -
20/03:00pm 11.2 SW 7 8 1021.7 - 0.0 - - - - - - -
20/02:30pm 11.0 SW 7 10 1022.2 - 0.0 - - - - - - -
20/02:00pm 11.1 WSW 3 5 1022.3 - 0.0 - - - - - - -
20/01:30pm 11.7 WNW 5 7 1022.7 - 0.0 - - - - - - -
20/01:00pm 12.1 WNW 8 11 1023.3 - 0.0 - - - - - - -
20/12:30pm 12.0 WNW 5 9 1023.5 - 0.0 - - - - - - -
20/12:00pm 11.9 NW 8 12 1024.1 - 0.0 - - - - - - -
20/11:30am 11.3 NW 8 11 1024.7 - 0.0 - - - - - - -
20/11:00am 11.0 NW 9 12 1025.2 - 0.0 - - - - - - -
20/10:30am 10.5 NW 9 12 1025.7 - 0.0 - - - - - - -
20/10:00am 10.0 NW 10 13 1025.9 - 0.0 - - - - - - -
20/09:30am 9.3 NW 9 12 1026.2 - 0.0 - - - - - - -
20/09:00am 9.0 NW 6 9 1026.2 - 0.4 - - - - - - -
20/08:30am 7.9 NW 7 9 1026.2 - 0.4 - - - - - - -
20/08:00am 6.5 NW 5 7 1026.2 - 0.4 - - - - - - -
20/07:30am 5.8 NW 5 7 1026.1 - 0.4 - - - - - - -
20/07:00am 5.3 WNW 4 5 1026.0 - 0.4 - - - - - - -
20/06:30am 4.8 NW 3 5 1025.8 - 0.4 - - - - - - -
20/06:00am 4.8 WNW 4 6 1025.7 - 0.4 - - - - - - -
20/05:30am 5.6 WNW 4 5 1025.6 - 0.4 - - - - - - -
20/05:00am 5.6 WNW 2 3 1025.4 - 0.4 - - - - - - -
20/04:30am 6.0 WNW 5 6 1025.6 - 0.4 - - - - - - -

Other Formats:

Comma delimited format used in spreadsheet applications
http://www.bom.gov.au/fwo/IDV60701/IDV60701.94911.axf

JavaScript Object Notation format (JSON) in row-major order
http://www.bom.gov.au/fwo/IDV60701/IDV60701.94911.json